Latest Weather Observations for Ngukurr AWS

IDD60801

Issued at 7:31 pm CST Wednesday 28 September 2016 (issued every 30 minutes, with the page automatically refreshed every 10 minutes)

About weather observations | Map of weather stations | Latest weather observations for NT | Other Formats
Station Details ID: 014299 Name: NGUKURR AIRPORT Lat: -14.72 Lon: 134.75 Height: 14.46 m
Data from the previous 72 hours. | See also: Recent months at Ngukurr AWS
Date/Time
CST
Temp
°C
App
Temp
°C
Dew
Point
°C
Rel
Hum
%
Delta-T
°C
Wind Press
QNH
hPa
Press
MSL
hPa
Rain since
9am
mm
Dir  Spd
km/h
Gust
km/h
Spd
kts
Gust
kts
28/07:30pm 34.5 35.3 14.9 31 12.2 NNW 4 6 2 3 1007.0 1006.9 0.0
28/07:00pm 35.4 35.6 14.1 28 13.1 NNW 6 7 3 4 1006.7 1006.6 0.0
28/06:30pm 36.3 35.9 13.1 25 14.2 NNW 7 9 4 5 1006.4 1006.3 0.0
28/06:00pm 37.2 36.3 12.6 23 15.0 N 9 17 5 9 1006.0 1005.9 0.0
28/05:30pm 37.6 37.0 12.3 22 15.3 N 7 13 4 7 1005.9 1005.8 0.0
28/05:00pm 38.1 37.6 12.7 22 15.5 N 7 13 4 7 1005.7 1005.6 0.0
28/04:30pm 38.4 36.8 12.9 22 15.6 NNW 13 22 7 12 1005.7 1005.6 0.0
28/04:00pm 38.7 38.4 13.2 22 15.7 NNE 7 11 4 6 1005.6 1005.5 0.0
28/03:30pm 39.0 38.0 13.4 22 15.8 NNW 11 19 6 10 1006.0 1005.9 0.0
28/03:00pm 38.3 37.2 12.1 21 15.9 NNW 9 19 5 10 1006.3 1006.2 0.0
28/02:30pm 37.7 36.8 13.7 24 14.8 NNE 11 22 6 12 1006.8 1006.7 0.0
28/02:00pm 37.6 36.7 13.6 24 14.8 NE 11 24 6 13 1007.3 1007.2 0.0
28/01:30pm 37.6 36.1 14.2 25 14.6 N 15 26 8 14 1007.9 1007.8 0.0
28/01:00pm 36.9 37.5 15.9 28 13.3 NNW 7 20 4 11 1008.6 1008.5 0.0
28/12:30pm 37.8 38.6 17.2 29 13.4 NNE 9 19 5 10 1009.1 1009.0 0.0
28/12:00pm 36.5 36.1 16.1 29 13.0 N 13 22 7 12 1009.4 1009.3 0.0
28/11:30am 35.7 36.5 17.4 33 11.8 NW 9 15 5 8 1009.9 1009.8 0.0
28/11:00am 36.2 37.2 17.8 33 12.0 NW 9 17 5 9 1010.3 1010.2 0.0
28/10:30am 34.4 36.2 19.6 41 9.8 NNW 9 17 5 9 1010.5 1010.4 0.0
28/10:00am 34.2 36.6 20.9 45 9.0 NNW 9 19 5 10 1010.8 1010.7 0.0
28/09:30am 33.1 35.9 21.6 51 7.8 NW 9 17 5 9 1011.2 1011.1 0.0
28/09:00am 32.1 34.9 21.6 53 7.1 WNW 9 15 5 8 1011.2 1011.1 0.0
28/08:30am 30.8 34.4 22.4 61 5.7 NNW 7 13 4 7 1011.1 1011.0 0.0
28/08:00am 29.0 33.2 22.5 68 4.4 N 4 7 2 4 1010.9 1010.8 0.0
28/07:30am 27.1 32.0 22.3 75 3.2 CALM 0 0 0 0 1010.6 1010.5 0.0
28/07:00am 25.3 29.9 21.8 81 2.3 CALM 0 0 0 0 1010.1 1010.0 0.0
28/06:30am 24.4 29.1 21.9 86 1.7 CALM 0 0 0 0 1009.8 1009.7 0.0
28/06:00am 24.4 29.0 21.7 85 1.8 CALM 0 0 0 0 1009.5 1009.4 0.0
28/05:30am 24.9 29.3 21.4 81 2.3 CALM 0 0 0 0 1009.1 1009.0 0.0
28/05:00am 25.2 29.8 21.7 81 2.3 CALM 0 0 0 0 1008.6 1008.5 0.0
28/04:30am 25.1 29.5 21.4 80 2.5 CALM 0 0 0 0 1008.6 1008.5 0.0
28/04:00am 25.5 29.9 21.4 78 2.7 CALM 0 0 0 0 1008.5 1008.4 0.0
28/03:30am 25.6 30.0 21.3 77 2.8 CALM 0 0 0 0 1008.6 1008.5 0.0
28/03:00am 26.1 30.4 21.1 74 3.3 CALM 0 0 0 0 1008.6 1008.5 0.0
28/02:30am 26.6 30.7 20.7 70 3.9 CALM 0 0 0 0 1008.7 1008.6 0.0
28/02:00am 27.4 31.4 20.5 66 4.5 CALM 0 4 0 2 1008.8 1008.7 0.0
28/01:30am 28.2 31.1 20.7 63 5.0 NE 6 6 3 3 1008.9 1008.8 0.0
28/01:00am 28.2 31.6 21.0 65 4.8 ENE 4 7 2 4 1009.3 1009.2 0.0
28/12:30am 28.3 31.6 20.8 63 5.0 NNE 4 6 2 3 1009.5 1009.4 0.0
28/12:00am 28.6 31.6 20.9 63 5.1 NNE 6 6 3 3 1010.1 1010.0 0.0
 
Date/Time
CST
Temp
°C
App
Temp
°C
Dew
Point
°C
Rel
Hum
%
Delta-T
°C
Wind Press
QNH
hPa
Press
MSL
hPa
Rain since
9am
mm
Dir  Spd
km/h
Gust
km/h
Spd
kts
Gust
kts
27/11:30pm 28.8 32.1 20.8 62 5.3 NNE 4 7 2 4 1010.2 1010.1 0.0
27/11:00pm 29.1 30.7 20.8 61 5.5 NE 13 17 7 9 1010.1 1010.0 0.0
27/10:30pm 29.5 31.3 20.4 58 6.0 NE 11 17 6 9 1010.1 1010.0 0.0
27/10:00pm 29.9 31.6 19.3 53 6.9 E 9 13 5 7 1009.8 1009.7 0.0
27/09:30pm 30.4 32.1 18.5 49 7.7 E 7 15 4 8 1009.5 1009.4 0.0
27/09:00pm 30.8 31.8 17.8 45 8.3 ENE 9 13 5 7 1009.3 1009.2 0.0
27/08:30pm 31.4 31.6 15.8 39 9.7 E 9 13 5 7 1009.2 1009.1 0.0
27/08:00pm 32.2 31.5 14.3 33 10.9 E 11 19 6 10 1008.8 1008.7 0.0
27/07:30pm 33.0 31.7 12.6 29 12.2 E 11 19 6 10 1008.6 1008.5 0.0
27/07:00pm 33.9 30.5 10.5 24 13.6 E 19 28 10 15 1008.3 1008.2 0.0
27/06:30pm 34.7 31.9 11.2 24 13.9 E 17 22 9 12 1007.7 1007.6 0.0
27/06:00pm 35.9 33.4 12.2 24 14.2 E 17 24 9 13 1007.3 1007.2 0.0
27/05:30pm 36.5 34.5 13.9 26 14.0 E 17 26 9 14 1007.0 1006.9 0.0
27/05:00pm 37.8 36.2 11.7 21 15.7 NE 11 17 6 9 1006.6 1006.5 0.0
27/04:30pm 37.9 37.9 12.5 22 15.5 E 4 7 2 4 1006.5 1006.4 0.0
27/04:00pm 38.5 37.7 13.0 22 15.6 NE 9 19 5 10 1006.5 1006.4 0.0
27/03:30pm 38.0 37.0 13.3 23 15.2 E 11 15 6 8 1006.8 1006.7 0.0
27/03:00pm 38.3 37.1 12.8 22 15.6 NE 11 24 6 13 1006.8 1006.7 0.0
27/02:30pm 37.9 35.4 11.1 20 16.0 ENE 15 26 8 14 1007.2 1007.1 0.0
27/02:00pm 37.6 35.3 12.9 23 15.1 NE 17 26 9 14 1007.5 1007.4 0.0
27/01:30pm 37.8 36.2 15.0 26 14.4 E 17 33 9 18 1007.9 1007.8 0.0
27/01:00pm 38.4 36.4 11.5 20 16.1 NE 13 24 7 13 1008.5 1008.4 0.0
27/12:30pm 38.2 35.4 11.3 20 16.1 NE 17 26 9 14 1009.2 1009.1 0.0
27/12:00pm 37.6 35.0 10.8 20 15.9 NE 15 24 8 13 1009.9 1009.8 0.0
27/11:30am 37.1 36.8 13.2 24 14.6 NE 7 20 4 11 1010.6 1010.5 0.0
27/11:00am 35.7 36.0 14.4 28 13.2 WSW 6 9 3 5 1011.1 1011.0 0.0
27/10:30am 34.6 36.0 16.4 33 11.6 W 4 9 2 5 1011.4 1011.3 0.0
27/10:00am 33.1 35.0 18.5 42 9.5 W 6 15 3 8 1011.6 1011.5 0.0
27/09:30am 32.0 34.2 20.3 50 7.8 WNW 9 15 5 8 1011.8 1011.7 0.0
27/09:00am 30.7 33.5 21.5 58 6.2 WNW 9 15 5 8 1012.0 1011.9 0.0
27/08:30am 28.8 32.5 22.5 68 4.3 W 7 13 4 7 1012.2 1012.1 0.0
27/08:00am 27.4 32.4 23.2 78 2.9 W 2 6 1 3 1012.0 1011.9 0.0
27/07:30am 25.6 31.3 23.7 89 1.3 CALM 0 0 0 0 1011.7 1011.6 0.0
27/07:00am 24.1 29.5 23.8 98 0.2 N 2 4 1 2 1011.4 1011.3 0.0
27/06:30am 23.3 28.6 23.0 98 0.2 CALM 0 0 0 0 1010.9 1010.8 0.0
27/06:00am 23.1 28.3 22.8 98 0.2 CALM 0 0 0 0 1010.6 1010.5 0.0
27/05:30am 23.5 28.9 23.2 98 0.2 CALM 0 0 0 0 1010.3 1010.2 0.0
27/05:00am 23.6 29.0 23.3 98 0.2 CALM 0 0 0 0 1010.0 1009.9 0.0
27/04:30am 23.9 29.5 23.6 98 0.2 CALM 0 2 0 1 1009.8 1009.7 0.0
27/04:00am 23.8 29.0 23.5 98 0.2 NW 2 2 1 1 1009.3 1009.2 0.0
27/03:30am 24.0 28.8 23.5 97 0.3 SW 4 6 2 3 1009.1 1009.0 0.0
27/03:00am 24.2 29.3 22.6 91 1.1 CALM 0 0 0 0 1008.8 1008.7 0.0
27/02:30am 25.2 29.8 23.1 88 1.4 NE 4 6 2 3 1008.9 1008.8 0.0
27/02:00am 25.4 30.1 22.7 85 1.8 NE 2 6 1 3 1009.4 1009.3 0.0
27/01:30am 25.8 30.4 22.5 82 2.2 NE 2 4 1 2 1009.9 1009.8 0.0
27/01:00am 26.1 30.2 22.2 79 2.6 ENE 4 6 2 3 1010.4 1010.3 0.0
27/12:30am 26.4 30.3 21.8 76 3.1 E 4 6 2 3 1010.8 1010.7 0.0
27/12:00am 26.8 30.2 21.6 73 3.5 ENE 6 9 3 5 1011.0 1010.9 0.0
 
Date/Time
CST
Temp
°C
App
Temp
°C
Dew
Point
°C
Rel
Hum
%
Delta-T
°C
Wind Press
QNH
hPa
Press
MSL
hPa
Rain since
9am
mm
Dir  Spd
km/h
Gust
km/h
Spd
kts
Gust
kts
26/11:30pm 27.2 30.2 21.2 69 4.0 ENE 7 11 4 6 1011.3 1011.2 0.0
26/11:00pm 27.6 30.6 21.2 68 4.3 ENE 7 9 4 5 1011.7 1011.6 0.0
26/10:30pm 27.9 31.2 20.7 65 4.8 NE 4 6 2 3 1011.7 1011.6 0.0
26/10:00pm 28.5 31.1 20.5 62 5.3 E 7 11 4 6 1011.6 1011.5 0.0
26/09:30pm 28.9 32.4 20.4 60 5.6 E 2 6 1 3 1011.6 1011.5 0.0
26/09:00pm 29.6 32.1 20.2 57 6.2 ESE 7 13 4 7 1011.3 1011.2 0.0
26/08:30pm 30.0 32.5 20.3 56 6.4 ESE 7 11 4 6 1011.0 1010.9 0.0
26/08:00pm 30.6 32.9 19.9 52 7.0 ESE 7 11 4 6 1010.8 1010.7 0.0
26/07:30pm 30.8 32.3 19.8 52 7.2 ESE 11 17 6 9 1010.4 1010.3 0.0
26/07:00pm 31.2 32.5 20.2 52 7.3 E 13 20 7 11 1009.8 1009.7 0.0
26/06:30pm 31.9 32.7 19.9 49 7.9 E 15 19 8 10 1009.4 1009.3 0.0
26/06:00pm 33.0 33.6 19.5 45 8.9 E 15 20 8 11 1008.6 1008.5 0.0
26/05:30pm 33.5 33.2 19.2 43 9.4 E 19 24 10 13 1008.3 1008.2 0.0
26/05:00pm 34.4 34.9 19.2 40 10.0 E 15 24 8 13 1007.9 1007.8 0.0
26/04:30pm 34.9 34.9 20.1 42 9.9 E 20 30 11 16 1007.8 1007.7 0.0
26/04:00pm 35.3 35.4 20.4 41 10.0 E 20 30 11 16 1007.9 1007.8 0.0
26/03:30pm 35.5 35.7 20.2 40 10.3 ENE 19 28 10 15 1007.8 1007.7 0.0
26/03:00pm 35.5 35.9 19.0 37 10.9 ENE 15 24 8 13 1007.9 1007.8 0.0
26/02:30pm 36.4 34.6 17.0 31 12.5 NE 22 32 12 17 1008.0 1007.9 0.0
26/02:00pm 35.7 35.4 17.4 33 11.8 ENE 15 20 8 11 1008.4 1008.3 0.0
26/01:30pm 36.1 35.2 16.8 32 12.4 ENE 17 26 9 14 1008.8 1008.7 0.0
26/01:00pm 35.7 35.8 17.4 33 11.8 ENE 13 22 7 12 1009.3 1009.2 0.0
26/12:30pm 35.3 35.4 17.5 34 11.5 ENE 13 20 7 11 1010.0 1009.9 0.0
26/12:00pm 35.8 35.9 18.4 35 11.4 NE 15 20 8 11 1010.3 1010.2 0.0
26/11:30am 34.4 34.0 17.2 36 11.0 NE 15 28 8 15 1010.9 1010.8 0.0
26/11:00am 33.5 34.4 19.2 43 9.4 NE 13 22 7 12 1011.3 1011.2 0.0
26/10:30am 33.2 34.9 19.3 44 9.1 NNE 9 20 5 11 1011.6 1011.5 0.0
26/10:00am 32.3 34.5 19.5 46 8.4 NNE 7 11 4 6 1011.6 1011.5 0.0
26/09:30am 30.8 33.5 20.7 55 6.7 N 7 13 4 7 1012.0 1011.9 0.0
26/09:00am 29.9 33.3 21.6 61 5.6 NNW 6 13 3 7 1012.0 1011.9 0.0
26/08:30am 29.0 32.8 21.7 64 4.9 NW 4 9 2 5 1012.0 1011.9 0.0
26/08:00am 28.3 32.7 22.1 69 4.2 ENE 2 6 1 3 1011.8 1011.7 0.0
26/07:30am 26.1 31.6 23.4 85 1.8 CALM 0 0 0 0 1011.3 1011.2 0.0
26/07:00am 25.4 31.0 23.5 89 1.3 CALM 0 0 0 0 1010.8 1010.7 0.0
26/06:30am 24.2 29.6 23.9 98 0.2 ESE 2 2 1 1 1010.4 1010.3 0.0
26/06:00am 24.0 29.6 23.5 97 0.3 CALM 0 2 0 1 1010.1 1010.0 0.0
26/05:30am 24.2 29.6 23.3 95 0.6 CALM 0 0 0 0 1009.7 1009.6 0.0
26/05:00am 24.6 30.0 23.2 92 0.9 CALM 0 0 0 0 1009.3 1009.2 0.0
26/04:30am 24.4 29.6 22.8 91 1.1 CALM 0 0 0 0 1009.0 1008.9 0.0
26/04:00am 24.5 29.4 22.4 88 1.4 CALM 0 0 0 0 1008.9 1008.8 0.0
26/03:30am 25.1 30.0 22.4 85 1.8 CALM 0 0 0 0 1008.7 1008.6 0.0
26/03:00am 26.0 30.5 22.3 80 2.5 NNE 2 4 1 2 1008.6 1008.5 0.0
26/02:30am 26.3 30.4 22.2 78 2.8 N 4 6 2 3 1009.0 1008.9 0.0
26/02:00am 26.7 30.3 22.3 77 3.0 NNE 7 9 4 5 1009.1 1009.0 0.0
26/01:30am 26.7 29.9 22.3 77 3.0 NNE 9 15 5 8 1009.7 1009.6 0.0
26/01:00am 26.8 30.0 22.4 77 3.0 NNE 9 15 5 8 1009.8 1009.7 0.0
26/12:30am 26.8 29.7 22.4 77 3.0 ENE 11 19 6 10 1010.1 1010.0 0.0
26/12:00am 26.8 29.1 22.0 75 3.2 ENE 13 19 7 10 1010.2 1010.1 0.0
 
Date/Time
CST
Temp
°C
App
Temp
°C
Dew
Point
°C
Rel
Hum
%
Delta-T
°C
Wind Press
QNH
hPa
Press
MSL
hPa
Rain since
9am
mm
Dir  Spd
km/h
Gust
km/h
Spd
kts
Gust
kts
25/11:30pm 26.9 28.8 21.4 72 3.7 ENE 13 17 7 9 1010.4 1010.3 0.0
25/11:00pm 27.1 29.3 21.2 70 3.9 ENE 11 17 6 9 1010.4 1010.3 0.0
25/10:30pm 27.4 28.4 20.2 65 4.7 ENE 15 20 8 11 1010.4 1010.3 0.0
25/10:00pm 27.9 28.6 18.9 58 5.8 ENE 13 20 7 11 1010.2 1010.1 0.0
25/09:30pm 28.4 28.3 17.0 50 7.2 ENE 13 19 7 10 1010.1 1010.0 0.0
25/09:00pm 29.3 28.3 13.5 38 9.4 ENE 11 20 6 11 1009.7 1009.6 0.0
25/08:30pm 30.3 27.1 11.3 31 11.0 ENE 19 24 10 13 1009.2 1009.1 0.0
25/08:00pm 31.7 29.7 11.5 29 11.8 E 13 20 7 11 1008.5 1008.4 0.0

Other Formats:

Comma delimited format used in spreadsheet applications
http://www.bom.gov.au/fwo/IDD60801/IDD60801.94106.axf

JavaScript Object Notation format (JSON) in row-major order
http://www.bom.gov.au/fwo/IDD60801/IDD60801.94106.json